Time;durP1;ratioP1;P1;durP2;ratioP2;P2;SDS_P1;SDS_P2;PMS_P1;PMS_P2;Temp;Humidity;BMP_temperature;BMP_pressure;BME280_temperature;BME280_humidity;BME280_pressure;Samples;Min_cycle;Max_cycle;Signal;HPM_P1;HPM_P2
2022/07/26 00:01:30;;;;;;;18.95;9.32;;;23.10;93.30;;;;;;5111407;28;20053;-74
2022/07/26 00:03:55;;;;;;;13.65;8.57;;;23.10;93.70;;;;;;5112215;28;20020;-74
2022/07/26 00:06:21;;;;;;;13.98;8.32;;;23.10;93.90;;;;;;5108329;28;20027;-76
2022/07/26 00:08:47;;;;;;;23.17;10.25;;;23.20;94.20;;;;;;5110873;28;20030;-73
2022/07/26 00:11:14;;;;;;;14.20;8.45;;;23.20;94.10;;;;;;5112204;28;20419;-72
2022/07/26 00:13:39;;;;;;;15.10;8.70;;;23.20;93.60;;;;;;5110720;28;20047;-75
2022/07/26 00:16:06;;;;;;;14.70;8.73;;;23.20;93.30;;;;;;5112045;28;20053;-72
2022/07/26 00:18:32;;;;;;;10.65;7.50;;;23.20;93.00;;;;;;5110791;28;20541;-75
2022/07/26 00:20:58;;;;;;;12.20;8.07;;;23.30;93.20;;;;;;5111880;28;20075;-71
2022/07/26 00:23:24;;;;;;;11.95;8.40;;;23.30;93.30;;;;;;5110704;28;20035;-75
2022/07/26 00:25:49;;;;;;;14.73;8.82;;;23.40;93.10;;;;;;5112031;28;20027;-71
2022/07/26 00:28:15;;;;;;;15.90;8.90;;;23.40;93.10;;;;;;5112015;28;20024;-74
2022/07/26 00:30:41;;;;;;;12.35;10.95;;;23.40;93.10;;;;;;5111622;28;20434;-76
2022/07/26 00:33:07;;;;;;;12.90;10.38;;;23.40;92.90;;;;;;5109225;28;20393;-76
2022/07/26 00:35:33;;;;;;;14.07;9.02;;;23.40;92.90;;;;;;5112225;28;20028;-76
2022/07/26 00:37:59;;;;;;;11.90;9.68;;;23.50;93.00;;;;;;5112221;28;20357;-74
2022/07/26 00:40:25;;;;;;;13.43;9.15;;;23.50;93.00;;;;;;5111012;28;20038;-78
2022/07/26 00:42:51;;;;;;;14.57;9.60;;;23.50;93.00;;;;;;5112210;28;20027;-77
2022/07/26 00:45:17;;;;;;;12.23;9.07;;;23.50;92.80;;;;;;5112353;28;20024;-80
2022/07/26 00:47:43;;;;;;;16.27;9.68;;;23.50;92.30;;;;;;5112351;28;20107;-78
2022/07/26 00:50:12;;;;;;;11.00;8.50;;;23.40;92.10;;;;;;5112275;28;20027;-78
2022/07/26 00:52:41;;;;;;;11.95;9.40;;;23.40;92.60;;;;;;5105067;28;20036;-77
2022/07/26 00:55:08;;;;;;;13.23;8.85;;;23.40;92.50;;;;;;5092129;28;20032;-79
2022/07/26 00:57:34;;;;;;;16.50;10.18;;;23.40;92.30;;;;;;5090619;28;20021;-78
2022/07/26 01:00:07;;;;;;;12.45;9.23;;;23.40;92.50;;;;;;5091971;28;20105;-78
2022/07/26 01:02:32;;;;;;;14.90;9.50;;;23.40;92.80;;;;;;5091690;28;20020;-80
2022/07/26 01:04:59;;;;;;;10.40;8.07;;;23.40;92.40;;;;;;5091602;28;20492;-75
2022/07/26 01:07:24;;;;;;;11.80;8.63;;;23.40;92.60;;;;;;5091293;28;20039;-79
2022/07/26 01:09:50;;;;;;;9.00;7.57;;;23.40;92.60;;;;;;5091463;28;20024;-78
2022/07/26 01:12:17;;;;;;;10.65;7.88;;;23.40;92.70;;;;;;5092494;28;20026;-79
2022/07/26 01:14:43;;;;;;;11.40;8.30;;;23.40;92.60;;;;;;5095132;28;20388;-79
2022/07/26 01:17:11;;;;;;;15.20;8.18;;;23.40;92.60;;;;;;5095126;28;20016;-79
2022/07/26 01:19:36;;;;;;;13.20;8.05;;;23.40;92.50;;;;;;5094995;28;20384;-79
2022/07/26 01:22:02;;;;;;;13.73;7.43;;;23.40;92.30;;;;;;5093809;28;20143;-75
2022/07/26 01:24:28;;;;;;;10.85;7.45;;;23.30;92.40;;;;;;5114355;28;20028;-78
2022/07/26 01:26:55;;;;;;;9.43;7.22;;;23.40;92.70;;;;;;5113948;28;20053;-79
2022/07/26 01:29:21;;;;;;;11.40;7.85;;;23.30;92.50;;;;;;5115261;28;20026;-75
2022/07/26 01:31:47;;;;;;;9.25;7.28;;;23.30;92.30;;;;;;5115133;28;20030;-81
2022/07/26 01:34:13;;;;;;;12.93;7.50;;;23.30;91.90;;;;;;5115088;28;20098;-80
2022/07/26 01:36:39;;;;;;;12.98;6.88;;;23.20;91.90;;;;;;5113849;28;20027;-76
2022/07/26 01:39:05;;;;;;;9.32;5.90;;;23.20;91.90;;;;;;5115130;28;20112;-81
2022/07/26 01:41:30;;;;;;;8.93;6.63;;;23.10;91.50;;;;;;5115175;28;20019;-75
2022/07/26 01:43:56;;;;;;;8.80;6.35;;;23.10;91.70;;;;;;5115033;28;20098;-78
2022/07/26 01:46:22;;;;;;;8.68;6.20;;;23.00;91.90;;;;;;5115079;27;20024;-75
2022/07/26 01:48:48;;;;;;;10.10;6.43;;;23.00;92.00;;;;;;5114834;28;20051;-78
2022/07/26 01:51:14;;;;;;;8.85;6.40;;;23.00;91.90;;;;;;5114910;28;20058;-79
2022/07/26 01:53:40;;;;;;;9.07;6.25;;;22.90;91.80;;;;;;5100747;28;20378;-78
2022/07/26 01:56:06;;;;;;;8.25;5.78;;;22.90;92.00;;;;;;5094320;28;20024;-78
2022/07/26 01:58:31;;;;;;;7.65;5.93;;;22.90;92.20;;;;;;5094226;28;20012;-77
2022/07/26 02:00:57;;;;;;;8.07;5.75;;;22.90;92.10;;;;;;5094175;28;20385;-76
2022/07/26 02:03:23;;;;;;;8.50;6.10;;;22.80;92.20;;;;;;5094380;28;20362;-79
2022/07/26 02:05:49;;;;;;;7.18;5.93;;;22.80;92.30;;;;;;5094058;28;20389;-78
2022/07/26 02:08:14;;;;;;;11.18;6.20;;;22.80;92.30;;;;;;5094053;28;20436;-79
2022/07/26 02:13:24;;;;;;;;;;;22.70;92.20;;;;;;5094687;28;20027;-76
2022/07/26 02:15:50;;;;;;;8.63;6.57;;;22.80;93.60;;;;;;5092628;28;19908;-79
2022/07/26 02:18:15;;;;;;;6.93;6.10;;;22.70;92.30;;;;;;5092659;28;20055;-77
2022/07/26 02:20:41;;;;;;;9.80;6.72;;;22.70;92.30;;;;;;5093498;28;20059;-75
2022/07/26 02:23:07;;;;;;;9.52;5.88;;;22.70;92.50;;;;;;5093997;28;20028;-78
2022/07/26 02:25:33;;;;;;;8.20;6.03;;;22.70;92.70;;;;;;5091728;28;20541;-75
2022/07/26 02:28:00;;;;;;;9.48;6.65;;;22.70;92.70;;;;;;5093592;28;20019;-74
2022/07/26 02:30:26;;;;;;;10.05;5.97;;;22.70;92.80;;;;;;5109253;28;20024;-78
2022/07/26 02:32:51;;;;;;;7.05;5.88;;;22.70;92.90;;;;;;5093630;28;20027;-78
2022/07/26 02:35:17;;;;;;;7.43;5.85;;;22.70;92.90;;;;;;5093743;28;20477;-77
2022/07/26 02:37:43;;;;;;;11.95;6.40;;;22.70;93.10;;;;;;5093700;28;20107;-74
2022/07/26 02:40:09;;;;;;;14.80;6.40;;;22.70;93.20;;;;;;5093405;28;20024;-77
2022/07/26 02:42:35;;;;;;;9.57;6.22;;;22.70;93.40;;;;;;5093295;28;20020;-80
2022/07/26 02:45:01;;;;;;;7.63;6.25;;;22.80;93.20;;;;;;5093285;28;20028;-75
2022/07/26 02:47:26;;;;;;;14.10;6.68;;;22.70;93.20;;;;;;5093284;28;20024;-76
2022/07/26 02:49:52;;;;;;;7.78;5.97;;;22.70;92.90;;;;;;5093234;28;20430;-78
2022/07/26 02:52:19;;;;;;;6.85;5.95;;;22.70;93.10;;;;;;5093219;28;20028;-80
2022/07/26 02:54:45;;;;;;;10.35;6.45;;;22.80;93.20;;;;;;5092885;28;20043;-75
2022/07/26 02:57:13;;;;;;;7.55;6.22;;;22.80;93.30;;;;;;5093090;28;20101;-75
2022/07/26 02:59:39;;;;;;;9.48;6.47;;;22.80;93.30;;;;;;5092956;28;20016;-76
2022/07/26 03:02:04;;;;;;;14.50;6.35;;;22.80;93.50;;;;;;5092949;28;20145;-75
2022/07/26 03:04:30;;;;;;;7.28;5.55;;;22.80;93.60;;;;;;5092827;28;20032;-76
2022/07/26 03:06:56;;;;;;;9.85;6.57;;;22.80;93.70;;;;;;5092958;28;20051;-76
2022/07/26 03:09:22;;;;;;;8.88;5.97;;;22.90;93.70;;;;;;5093135;28;20031;-78
2022/07/26 03:11:47;;;;;;;9.07;5.88;;;22.90;93.60;;;;;;5092736;28;20035;-74
2022/07/26 03:14:13;;;;;;;8.38;5.50;;;22.90;93.70;;;;;;5092658;28;20028;-79
2022/07/26 03:16:39;;;;;;;7.20;6.18;;;22.90;93.70;;;;;;5092665;28;20428;-77
2022/07/26 03:19:05;;;;;;;9.10;5.88;;;22.90;93.70;;;;;;5092687;28;20016;-75
2022/07/26 03:21:31;;;;;;;7.60;6.30;;;22.90;93.60;;;;;;5092401;28;20082;-75
2022/07/26 03:23:56;;;;;;;9.70;6.45;;;23.00;93.70;;;;;;5094582;28;20032;-75
2022/07/26 03:26:22;;;;;;;8.68;6.18;;;22.90;93.60;;;;;;5112910;28;20415;-76
2022/07/26 03:28:48;;;;;;;9.43;6.50;;;23.00;93.70;;;;;;5112843;28;20027;-79
2022/07/26 03:31:14;;;;;;;10.95;5.85;;;23.00;93.80;;;;;;5112752;28;20487;-78
2022/07/26 03:33:39;;;;;;;9.38;6.78;;;23.00;93.70;;;;;;5112730;28;20031;-76
2022/07/26 03:36:06;;;;;;;7.97;5.97;;;23.00;93.60;;;;;;5113192;28;20398;-79
2022/07/26 03:38:32;;;;;;;11.85;7.00;;;23.00;93.50;;;;;;5112544;28;20020;-79
2022/07/26 03:40:58;;;;;;;9.63;6.85;;;23.00;93.50;;;;;;5112674;28;20589;-74
2022/07/26 03:43:23;;;;;;;9.18;5.90;;;22.90;93.50;;;;;;5112553;28;20042;-77
2022/07/26 03:45:49;;;;;;;9.35;6.07;;;23.00;93.60;;;;;;5112532;28;20031;-78
2022/07/26 03:48:15;;;;;;;8.15;6.65;;;23.00;93.70;;;;;;5111179;28;20043;-77
2022/07/26 03:50:41;;;;;;;9.60;6.97;;;23.00;93.70;;;;;;5112592;28;20059;-78
2022/07/26 03:53:07;;;;;;;9.77;6.25;;;23.00;93.80;;;;;;5101988;28;20077;-75
2022/07/26 03:58:18;;;;;;;9.35;6.32;;;23.10;93.90;;;;;;5092103;28;20035;-74
2022/07/26 04:00:44;;;;;;;6.68;5.53;;;23.10;93.90;;;;;;5090675;28;20031;-74
2022/07/26 04:03:10;;;;;;;7.78;5.70;;;23.10;94.00;;;;;;5092046;28;20481;-77
2022/07/26 04:05:36;;;;;;;8.93;6.20;;;23.10;94.00;;;;;;5091860;28;20047;-75
2022/07/26 04:08:02;;;;;;;8.98;6.35;;;23.10;94.00;;;;;;5091949;28;20048;-76
2022/07/26 04:10:28;;;;;;;11.55;6.75;;;23.10;93.90;;;;;;5091784;28;20059;-78
2022/07/26 04:12:54;;;;;;;11.20;6.68;;;23.10;93.80;;;;;;5091845;28;20385;-76
2022/07/26 04:15:21;;;;;;;11.55;7.00;;;23.10;93.80;;;;;;5091682;28;20036;-77
2022/07/26 04:17:47;;;;;;;8.27;6.50;;;23.10;93.90;;;;;;5091705;28;20381;-73
2022/07/26 04:20:14;;;;;;;11.43;7.07;;;23.20;93.80;;;;;;5091658;28;20077;-78
2022/07/26 04:22:43;;;;;;;10.07;6.90;;;23.20;93.80;;;;;;5092047;28;20110;-77
2022/07/26 04:25:09;;;;;;;11.13;5.63;;;23.10;93.80;;;;;;5091753;28;20427;-77
2022/07/26 04:27:36;;;;;;;11.25;7.13;;;23.20;93.80;;;;;;5091852;28;20495;-78
2022/07/26 04:30:03;;;;;;;14.48;9.20;;;23.20;93.80;;;;;;5090744;28;20069;-76
2022/07/26 04:32:28;;;;;;;9.23;7.35;;;23.20;93.70;;;;;;5091649;28;20024;-77
2022/07/26 04:34:54;;;;;;;9.00;6.97;;;23.20;93.90;;;;;;5091716;28;20030;-75
2022/07/26 04:37:20;;;;;;;9.13;6.45;;;23.20;93.80;;;;;;5091862;28;20407;-76
2022/07/26 04:39:46;;;;;;;8.35;6.53;;;23.20;93.90;;;;;;5091647;28;20019;-78
2022/07/26 04:42:11;;;;;;;8.40;6.50;;;23.20;94.00;;;;;;5091648;28;20020;-76
2022/07/26 04:44:38;;;;;;;7.65;6.28;;;23.30;94.20;;;;;;5091544;28;20099;-76
2022/07/26 04:47:04;;;;;;;7.80;6.75;;;23.30;94.20;;;;;;5092147;28;20046;-76
2022/07/26 04:49:29;;;;;;;10.40;7.95;;;23.30;94.10;;;;;;5095540;28;20484;-78
2022/07/26 04:51:55;;;;;;;10.25;6.95;;;23.30;93.90;;;;;;5111514;28;20028;-77
2022/07/26 04:54:21;;;;;;;11.50;7.72;;;23.30;93.70;;;;;;5095089;28;20032;-78
2022/07/26 04:56:48;;;;;;;9.45;7.50;;;23.30;93.80;;;;;;5095429;28;20062;-74
2022/07/26 04:59:16;;;;;;;7.80;6.90;;;23.30;93.80;;;;;;5095169;28;20020;-76
2022/07/26 05:01:42;;;;;;;8.13;7.05;;;23.40;94.10;;;;;;5095202;28;20020;-76
2022/07/26 05:04:08;;;;;;;9.85;7.00;;;23.40;94.20;;;;;;5093883;28;20028;-73
2022/07/26 05:06:34;;;;;;;10.50;6.88;;;23.40;94.30;;;;;;5093636;28;20028;-76
2022/07/26 05:09:00;;;;;;;10.65;6.78;;;23.50;94.30;;;;;;5093743;28;20038;-79
2022/07/26 05:11:26;;;;;;;6.30;5.63;;;23.50;94.40;;;;;;5094881;28;20389;-77
2022/07/26 05:13:51;;;;;;;8.15;7.13;;;23.50;94.50;;;;;;5094852;28;20028;-78
2022/07/26 05:16:17;;;;;;;9.80;6.78;;;23.60;94.30;;;;;;5094910;28;20192;-74
2022/07/26 05:18:43;;;;;;;12.13;6.63;;;23.60;94.30;;;;;;5093572;28;20024;-75
2022/07/26 05:21:09;;;;;;;8.52;6.40;;;23.60;94.30;;;;;;5094571;28;20040;-78
2022/07/26 05:23:35;;;;;;;8.70;6.97;;;23.60;94.20;;;;;;5094955;28;20036;-75
2022/07/26 05:26:00;;;;;;;9.40;7.05;;;23.60;94.20;;;;;;5094821;28;20078;-76
2022/07/26 05:28:26;;;;;;;8.65;7.43;;;23.70;94.40;;;;;;5094448;28;20023;-77
2022/07/26 05:30:52;;;;;;;9.18;6.93;;;23.70;94.20;;;;;;5100131;28;20559;-77
2022/07/26 05:33:17;;;;;;;12.32;7.78;;;23.60;93.80;;;;;;5113993;28;20099;-73
2022/07/26 05:35:43;;;;;;;8.25;6.90;;;23.60;93.50;;;;;;5114706;27;20024;-76
2022/07/26 05:38:09;;;;;;;8.73;7.00;;;23.60;93.50;;;;;;5113309;28;20051;-80
2022/07/26 05:40:34;;;;;;;10.77;7.47;;;23.60;93.50;;;;;;5112645;27;20468;-73
2022/07/26 05:43:01;;;;;;;9.40;7.07;;;23.60;93.50;;;;;;5114367;28;20472;-77
2022/07/26 05:45:27;;;;;;;8.82;7.32;;;23.60;93.70;;;;;;5113410;28;20051;-74
2022/07/26 05:47:53;;;;;;;9.43;7.22;;;23.70;94.00;;;;;;5110155;28;20421;-76
2022/07/26 05:50:19;;;;;;;9.60;7.00;;;23.70;94.30;;;;;;5108208;28;20038;-75
2022/07/26 05:52:45;;;;;;;10.25;7.15;;;23.70;94.30;;;;;;5113152;28;20067;-75
2022/07/26 05:55:11;;;;;;;7.65;6.57;;;23.80;94.40;;;;;;5112532;28;20526;-74
2022/07/26 05:57:40;;;;;;;9.73;6.78;;;23.80;94.50;;;;;;5112603;28;20028;-78
2022/07/26 06:00:08;;;;;;;8.18;7.32;;;23.90;94.80;;;;;;5104557;28;20031;-76
2022/07/26 06:02:33;;;;;;;10.35;7.45;;;24.00;95.00;;;;;;5112746;28;20303;-80
2022/07/26 06:04:59;;;;;;;10.70;7.15;;;24.00;95.10;;;;;;5112534;28;20057;-73
2022/07/26 06:07:25;;;;;;;9.02;6.78;;;24.10;95.00;;;;;;5113933;28;20476;-77
2022/07/26 06:09:50;;;;;;;8.75;6.75;;;24.10;95.00;;;;;;5113100;28;20027;-76
2022/07/26 06:12:16;;;;;;;9.45;7.43;;;24.20;95.00;;;;;;5113807;28;20027;-75
2022/07/26 06:14:42;;;;;;;8.00;6.63;;;24.20;94.70;;;;;;5113621;28;20027;-79
2022/07/26 06:17:08;;;;;;;7.47;6.68;;;24.20;94.40;;;;;;5111769;28;20083;-73
2022/07/26 06:19:34;;;;;;;9.90;6.85;;;24.20;94.30;;;;;;5113181;28;20377;-73
2022/07/26 06:21:59;;;;;;;10.23;6.65;;;24.20;94.00;;;;;;5096225;28;20047;-74
2022/07/26 06:24:25;;;;;;;9.20;5.97;;;24.20;94.00;;;;;;5093620;28;20028;-74
2022/07/26 06:26:52;;;;;;;7.47;6.15;;;24.20;94.20;;;;;;5094686;28;20024;-74
2022/07/26 06:29:18;;;;;;;9.43;6.82;;;24.20;94.30;;;;;;5094099;28;20039;-75
2022/07/26 06:31:44;;;;;;;9.02;6.97;;;24.20;94.60;;;;;;5106248;27;20051;-76
2022/07/26 06:34:09;;;;;;;7.53;6.70;;;24.20;94.60;;;;;;5113663;27;20042;-76
2022/07/26 06:36:35;;;;;;;9.27;6.80;;;24.30;94.70;;;;;;5108254;28;20024;-74
2022/07/26 06:39:01;;;;;;;9.10;6.78;;;24.30;94.60;;;;;;5114836;28;20033;-74
2022/07/26 06:41:26;;;;;;;10.32;6.47;;;24.30;94.70;;;;;;5114540;28;20024;-73
2022/07/26 06:43:52;;;;;;;8.20;7.28;;;24.30;94.90;;;;;;5114746;28;20102;-75
2022/07/26 06:46:19;;;;;;;18.27;7.43;;;24.40;94.80;;;;;;5114506;28;20084;-78
2022/07/26 06:48:46;;;;;;;7.97;6.75;;;24.40;95.00;;;;;;5113254;28;20028;-75
2022/07/26 06:51:12;;;;;;;8.00;7.20;;;24.50;95.30;;;;;;5114450;27;20027;-73
2022/07/26 06:53:37;;;;;;;11.73;6.68;;;24.50;95.40;;;;;;5099091;28;20032;-72
2022/07/26 06:56:04;;;;;;;7.20;6.13;;;24.60;95.60;;;;;;5093963;28;20031;-75
2022/07/26 06:58:30;;;;;;;8.23;6.20;;;24.70;95.80;;;;;;5094202;28;20558;-74
2022/07/26 07:00:56;;;;;;;7.45;6.63;;;24.70;95.90;;;;;;5093972;28;20027;-77
2022/07/26 07:03:22;;;;;;;9.57;6.45;;;24.80;95.80;;;;;;5092506;28;20107;-76
2022/07/26 07:05:48;;;;;;;6.78;6.07;;;24.80;95.80;;;;;;5093875;28;20427;-77
2022/07/26 07:08:14;;;;;;;8.80;6.32;;;24.90;95.80;;;;;;5093678;28;20024;-77
2022/07/26 07:10:40;;;;;;;12.23;6.32;;;25.00;95.90;;;;;;5093500;28;20416;-72
2022/07/26 07:13:06;;;;;;;8.65;7.07;;;25.00;96.00;;;;;;5093523;28;20016;-76
2022/07/26 07:15:32;;;;;;;10.15;6.30;;;25.10;96.10;;;;;;5093742;28;20031;-75
2022/07/26 07:17:58;;;;;;;7.28;6.10;;;25.20;96.40;;;;;;5093654;28;20034;-78
2022/07/26 07:20:23;;;;;;;9.27;6.55;;;25.30;96.50;;;;;;5093467;28;20103;-72
2022/07/26 07:22:49;;;;;;;10.55;6.88;;;25.30;96.60;;;;;;5093932;28;20028;-75
2022/07/26 07:25:15;;;;;;;7.65;6.18;;;25.50;96.70;;;;;;5092181;28;20032;-78
2022/07/26 07:27:41;;;;;;;10.45;6.00;;;25.60;96.80;;;;;;5093422;28;20038;-74
2022/07/26 07:30:09;;;;;;;9.70;6.50;;;25.60;96.90;;;;;;5093356;28;20024;-73
2022/07/26 07:32:35;;;;;;;7.72;6.32;;;25.80;97.50;;;;;;5093363;28;20031;-73
2022/07/26 07:35:01;;;;;;;11.40;6.45;;;25.90;98.00;;;;;;5093302;28;20024;-75
2022/07/26 07:37:27;;;;;;;7.93;6.28;;;26.10;98.00;;;;;;5093271;28;20077;-75
2022/07/26 07:39:53;;;;;;;10.45;6.25;;;26.20;98.00;;;;;;5093153;28;20023;-75
2022/07/26 07:42:19;;;;;;;7.88;6.13;;;26.40;98.30;;;;;;5093086;28;20040;-74
2022/07/26 07:44:45;;;;;;;10.95;6.47;;;26.40;97.90;;;;;;5093058;28;20024;-76
2022/07/26 07:47:10;;;;;;;7.45;6.38;;;26.50;97.30;;;;;;5093194;28;20081;-74
2022/07/26 07:49:36;;;;;;;7.68;6.47;;;26.50;96.20;;;;;;5093035;28;20032;-73
2022/07/26 07:52:02;;;;;;;7.35;5.90;;;26.50;94.80;;;;;;5093325;28;20107;-76
2022/07/26 07:54:28;;;;;;;6.90;6.18;;;26.50;94.60;;;;;;5113005;28;20042;-73
2022/07/26 07:56:55;;;;;;;8.00;6.30;;;26.40;94.20;;;;;;5092818;28;20024;-77
2022/07/26 07:59:22;;;;;;;7.78;6.25;;;26.50;94.90;;;;;;5093000;28;20078;-75
2022/07/26 08:01:48;;;;;;;6.93;6.18;;;26.60;95.50;;;;;;5092952;28;20489;-74
2022/07/26 08:04:13;;;;;;;9.07;6.63;;;26.70;95.50;;;;;;5092883;28;20028;-75
2022/07/26 08:06:40;;;;;;;8.32;5.63;;;26.70;95.20;;;;;;5092798;28;20500;-77
2022/07/26 08:09:05;;;;;;;7.47;6.70;;;26.70;95.20;;;;;;5092894;28;20422;-73
2022/07/26 08:11:31;;;;;;;9.88;6.90;;;26.80;95.30;;;;;;5092932;28;20107;-75
2022/07/26 08:13:57;;;;;;;7.20;6.25;;;26.90;94.60;;;;;;5091590;28;20042;-73
2022/07/26 08:16:23;;;;;;;8.48;5.80;;;26.80;93.70;;;;;;5092793;28;20024;-75
2022/07/26 08:18:48;;;;;;;8.85;5.68;;;26.80;93.90;;;;;;5091526;28;20016;-73
2022/07/26 08:21:14;;;;;;;12.05;6.43;;;26.80;94.30;;;;;;5092599;28;20044;-75
2022/07/26 08:23:40;;;;;;;9.27;6.57;;;26.90;94.60;;;;;;5096388;28;20066;-74
2022/07/26 08:26:06;;;;;;;7.97;6.90;;;26.80;92.70;;;;;;5096857;28;20104;-76
2022/07/26 08:28:32;;;;;;;8.75;6.63;;;26.60;91.80;;;;;;5096857;28;20433;-78
2022/07/26 08:30:57;;;;;;;7.03;6.13;;;26.60;92.80;;;;;;5095584;28;20023;-74
2022/07/26 08:33:23;;;;;;;6.65;6.05;;;26.60;93.20;;;;;;5095484;28;20024;-74
2022/07/26 08:35:49;;;;;;;7.90;6.57;;;26.50;93.40;;;;;;5096827;28;20473;-74
2022/07/26 08:38:15;;;;;;;8.13;6.82;;;26.60;93.80;;;;;;5096862;28;20027;-77
2022/07/26 08:40:41;;;;;;;11.60;6.70;;;26.50;93.60;;;;;;5096706;28;20024;-74
2022/07/26 08:43:07;;;;;;;9.25;7.05;;;26.50;94.10;;;;;;5096731;28;20031;-75
2022/07/26 08:45:33;;;;;;;10.75;7.85;;;26.70;95.50;;;;;;5095372;28;20028;-71
2022/07/26 08:48:00;;;;;;;8.20;7.18;;;26.80;95.90;;;;;;5096565;28;20107;-75
2022/07/26 08:50:28;;;;;;;9.63;7.93;;;27.00;96.80;;;;;;5096555;28;20153;-74
2022/07/26 08:53:02;;;;;;;10.55;7.38;;;27.10;95.80;;;;;;5096776;28;20020;-76
2022/07/26 08:55:28;;;;;;;9.38;7.47;;;27.20;95.60;;;;;;5096290;28;20161;-73
2022/07/26 08:57:54;;;;;;;9.40;7.25;;;27.40;96.00;;;;;;5096406;28;20062;-77
2022/07/26 09:00:28;;;;;;;9.90;7.93;;;27.50;96.30;;;;;;5096354;28;20020;-73
2022/07/26 09:02:55;;;;;;;10.95;8.43;;;27.60;95.00;;;;;;5096347;28;20024;-75
2022/07/26 09:05:32;;;;;;;10.13;7.32;;;27.60;93.20;;;;;;5096247;28;20113;-72
2022/07/26 09:07:59;;;;;;;9.85;6.97;;;27.60;93.90;;;;;;5096316;28;20016;-76
2022/07/26 09:10:26;;;;;;;12.50;7.43;;;27.70;93.60;;;;;;5096162;28;20099;-72
2022/07/26 09:12:56;;;;;;;9.70;7.03;;;27.80;93.10;;;;;;5096130;28;20031;-73
2022/07/26 09:15:25;;;;;;;7.13;6.43;;;27.60;91.40;;;;;;5096024;28;20020;-71
2022/07/26 09:17:54;;;;;;;10.68;6.68;;;27.60;91.90;;;;;;5095973;28;20465;-72
2022/07/26 09:20:24;;;;;;;9.00;6.38;;;27.60;91.70;;;;;;5096027;28;20123;-75
2022/07/26 09:23:01;;;;;;;11.30;7.97;;;27.60;92.40;;;;;;5096196;28;20031;-75
2022/07/26 09:25:39;;;;;;;6.65;5.90;;;27.70;93.50;;;;;;5095969;28;20055;-76
2022/07/26 09:28:29;;;;;;;12.30;7.13;;;27.80;93.90;;;;;;5095913;28;20416;-73
2022/07/26 09:31:05;;;;;;;7.95;6.45;;;27.80;94.20;;;;;;5096053;28;20326;-74
2022/07/26 09:33:48;;;;;;;8.45;7.18;;;27.90;94.10;;;;;;5095571;28;20031;-74
2022/07/26 09:36:15;;;;;;;12.68;7.13;;;28.00;94.70;;;;;;5095704;28;20020;-72
2022/07/26 09:38:43;;;;;;;9.35;7.03;;;28.20;94.20;;;;;;5094358;28;20020;-73
2022/07/26 09:41:26;;;;;;;7.85;7.07;;;28.20;93.10;;;;;;5095716;28;20020;-73
2022/07/26 09:43:54;;;;;;;9.43;7.28;;;28.20;92.80;;;;;;5095516;28;20044;-75
2022/07/26 09:46:24;;;;;;;11.02;8.05;;;28.10;91.00;;;;;;5094238;28;20024;-74
2022/07/26 09:48:51;;;;;;;8.23;7.38;;;28.10;91.80;;;;;;5095427;28;20149;-72
2022/07/26 09:51:39;;;;;;;11.90;6.90;;;28.10;92.40;;;;;;5095336;28;20035;-74
2022/07/26 09:54:05;;;;;;;10.63;8.15;;;28.20;94.00;;;;;;5096378;28;20024;-75
2022/07/26 09:56:51;;;;;;;11.90;9.45;;;28.40;93.90;;;;;;5115780;28;20038;-74
2022/07/26 09:59:19;;;;;;;12.63;8.50;;;28.50;93.50;;;;;;5115620;28;20024;-73
2022/07/26 10:01:46;;;;;;;8.45;7.60;;;28.50;91.10;;;;;;5116359;28;20363;-76
2022/07/26 10:04:13;;;;;;;9.13;7.90;;;28.50;91.70;;;;;;5115597;28;20366;-74
2022/07/26 10:06:39;;;;;;;9.55;7.47;;;28.60;91.50;;;;;;5115612;28;20100;-73
2022/07/26 10:09:07;;;;;;;14.93;8.43;;;28.60;91.40;;;;;;5115666;28;20093;-73
2022/07/26 10:11:58;;;;;;;10.38;8.10;;;28.40;90.10;;;;;;5115527;28;20098;-73
2022/07/26 10:14:46;;;;;;;9.35;8.35;;;28.30;90.80;;;;;;5109814;28;20051;-73
2022/07/26 10:17:32;;;;;;;15.68;9.90;;;28.20;91.20;;;;;;5115865;28;20028;-73
2022/07/26 10:20:02;;;;;;;11.95;10.07;;;28.10;90.50;;;;;;5115806;28;20028;-74
2022/07/26 10:22:30;;;;;;;11.73;10.55;;;28.00;88.40;;;;;;5110666;28;20016;-74
2022/07/26 10:25:17;;;;;;;12.45;11.25;;;27.90;89.40;;;;;;5094793;28;20027;-74
2022/07/26 10:27:46;;;;;;;15.25;11.90;;;27.90;90.00;;;;;;5094570;28;20034;-74
2022/07/26 10:30:24;;;;;;;12.52;11.23;;;27.90;89.80;;;;;;5094548;28;20112;-73
2022/07/26 10:32:52;;;;;;;13.38;11.73;;;27.90;90.90;;;;;;5094483;28;20032;-74
2022/07/26 10:35:34;;;;;;;12.40;11.05;;;27.90;91.10;;;;;;5094198;28;20047;-73
2022/07/26 10:38:03;;;;;;;13.75;12.45;;;27.90;92.40;;;;;;5094506;28;20043;-73
2022/07/26 10:40:29;;;;;;;12.82;11.73;;;28.00;92.10;;;;;;5093136;28;20474;-73
2022/07/26 10:43:10;;;;;;;14.07;12.77;;;28.10;92.50;;;;;;5093186;28;20032;-73
2022/07/26 10:45:37;;;;;;;13.32;11.55;;;28.10;92.60;;;;;;5093624;28;20488;-74
2022/07/26 10:48:17;;;;;;;14.82;13.27;;;28.20;92.00;;;;;;5094251;28;20107;-74
2022/07/26 10:50:52;;;;;;;13.50;12.15;;;28.30;93.00;;;;;;5109916;28;20044;-74
2022/07/26 10:53:23;;;;;;;12.55;11.45;;;28.60;93.50;;;;;;5094483;28;20020;-73
2022/07/26 10:55:50;;;;;;;16.38;12.52;;;28.70;92.30;;;;;;5094071;28;20031;-74
2022/07/26 10:58:17;;;;;;;18.42;12.05;;;28.90;93.40;;;;;;5093977;28;20032;-74
2022/07/26 11:01:03;;;;;;;15.00;11.98;;;29.00;90.40;;;;;;5093994;28;20038;-73
2022/07/26 11:03:40;;;;;;;12.90;11.60;;;29.00;90.80;;;;;;5092369;28;20067;-72
2022/07/26 11:06:15;;;;;;;11.15;10.05;;;29.00;88.10;;;;;;5093774;28;20016;-74
2022/07/26 11:08:42;;;;;;;17.38;10.45;;;29.00;89.60;;;;;;5093713;28;20020;-73
2022/07/26 11:11:08;;;;;;;11.95;9.82;;;29.00;87.60;;;;;;5093575;28;20436;-74
2022/07/26 11:13:36;;;;;;;11.68;9.43;;;28.90;87.30;;;;;;5093788;28;20024;-74
2022/07/26 11:16:04;;;;;;;11.82;9.35;;;28.70;83.50;;;;;;5093673;28;20106;-74
2022/07/26 11:18:34;;;;;;;10.20;9.20;;;28.50;81.70;;;;;;5092143;28;20074;-74
2022/07/26 11:21:16;;;;;;;10.95;8.55;;;28.50;83.00;;;;;;5093318;28;20547;-73
2022/07/26 11:23:44;;;;;;;10.18;8.82;;;28.40;90.00;;;;;;5094053;28;20382;-74
2022/07/26 11:26:14;;;;;;;14.27;9.40;;;28.40;88.40;;;;;;5093444;28;20020;-73
2022/07/26 11:28:49;;;;;;;14.90;9.90;;;28.40;88.40;;;;;;5093327;28;20020;-74
2022/07/26 11:31:16;;;;;;;10.90;9.13;;;28.30;84.90;;;;;;5093529;28;20012;-73
2022/07/26 11:33:45;;;;;;;11.85;9.23;;;28.20;83.60;;;;;;5093202;28;20548;-73
2022/07/26 11:36:11;;;;;;;11.07;9.98;;;28.10;84.60;;;;;;5093359;28;20027;-75
2022/07/26 11:38:45;;;;;;;12.35;8.85;;;28.00;85.40;;;;;;5093389;28;20016;-73
2022/07/26 11:41:11;;;;;;;12.75;8.70;;;27.90;87.70;;;;;;5092032;28;20114;-73
2022/07/26 11:43:37;;;;;;;13.23;9.00;;;27.80;86.80;;;;;;5091985;28;20099;-73
2022/07/26 11:46:04;;;;;;;11.55;9.18;;;27.70;85.50;;;;;;5093191;28;20017;-73
2022/07/26 11:48:31;;;;;;;9.55;8.65;;;27.50;86.20;;;;;;5093317;28;20024;-74
2022/07/26 11:51:22;;;;;;;10.23;8.65;;;27.50;88.00;;;;;;5093120;28;20533;-73
2022/07/26 11:53:49;;;;;;;12.18;8.43;;;27.50;90.80;;;;;;5093356;28;20028;-73
2022/07/26 11:56:20;;;;;;;12.63;8.18;;;27.50;90.00;;;;;;5093164;28;20020;-73
2022/07/26 11:58:48;;;;;;;10.15;8.45;;;27.60;89.30;;;;;;5091663;28;20111;-73
2022/07/26 12:01:15;;;;;;;10.25;7.85;;;27.60;88.80;;;;;;5093016;28;20487;-73
2022/07/26 12:03:43;;;;;;;11.52;7.50;;;27.60;85.70;;;;;;5093034;28;20102;-73
2022/07/26 12:06:12;;;;;;;7.90;6.65;;;27.50;85.20;;;;;;5091730;28;20452;-73
2022/07/26 12:08:39;;;;;;;9.43;6.43;;;27.60;88.70;;;;;;5093078;28;20024;-73
2022/07/26 12:11:05;;;;;;;9.70;6.35;;;27.70;90.60;;;;;;5091713;28;20099;-73
2022/07/26 12:13:31;;;;;;;9.75;7.10;;;27.90;92.00;;;;;;5093006;28;20174;-73
2022/07/26 12:15:57;;;;;;;9.35;6.50;;;28.00;90.10;;;;;;5092915;28;20028;-73
2022/07/26 12:18:31;;;;;;;6.47;5.75;;;28.10;90.40;;;;;;5092805;28;20385;-74
2022/07/26 12:21:07;;;;;;;6.65;5.78;;;28.20;91.60;;;;;;5092687;28;20044;-73
2022/07/26 12:23:49;;;;;;;10.27;6.28;;;28.60;93.00;;;;;;5093112;28;20024;-73
2022/07/26 12:26:26;;;;;;;11.18;5.47;;;28.60;91.60;;;;;;5092623;28;20021;-73
2022/07/26 12:28:53;;;;;;;11.35;6.40;;;28.70;90.50;;;;;;5092613;28;20539;-73
2022/07/26 12:31:27;;;;;;;9.55;6.20;;;28.80;86.00;;;;;;5092729;28;20020;-73
2022/07/26 12:33:54;;;;;;;14.57;6.00;;;28.70;85.50;;;;;;5092728;28;20016;-74
2022/07/26 12:36:21;;;;;;;8.60;5.75;;;28.70;83.00;;;;;;5092765;28;20423;-74
2022/07/26 12:38:46;;;;;;;13.20;5.00;;;28.60;84.60;;;;;;5092709;28;20020;-73
2022/07/26 12:41:30;;;;;;;6.05;4.70;;;28.50;83.00;;;;;;5092744;28;20044;-74
2022/07/26 12:43:56;;;;;;;7.40;5.60;;;28.50;89.70;;;;;;5091428;28;20542;-74
2022/07/26 12:46:21;;;;;;;7.72;4.97;;;28.30;82.50;;;;;;5092520;28;20110;-75
2022/07/26 12:48:47;;;;;;;6.50;5.20;;;28.20;83.30;;;;;;5092448;28;20054;-73